sensor_id;sensor_type;location;lat;lon;timestamp;temperature;humidity
3752;DHT22;50827;47.014;7.652;2023-05-10T00:01:13;14.60;99.90
3752;DHT22;50827;47.014;7.652;2023-05-10T00:03:40;14.70;99.90
3752;DHT22;50827;47.014;7.652;2023-05-10T00:06:07;14.70;99.90
3752;DHT22;50827;47.014;7.652;2023-05-10T00:08:33;14.70;99.90
3752;DHT22;50827;47.014;7.652;2023-05-10T00:11:00;14.60;99.90
3752;DHT22;50827;47.014;7.652;2023-05-10T00:13:27;14.50;99.90
3752;DHT22;50827;47.014;7.652;2023-05-10T00:15:54;14.50;99.90
3752;DHT22;50827;47.014;7.652;2023-05-10T00:18:20;14.50;99.90
3752;DHT22;50827;47.014;7.652;2023-05-10T00:20:47;14.50;99.90
3752;DHT22;50827;47.014;7.652;2023-05-10T00:23:15;14.50;99.90
3752;DHT22;50827;47.014;7.652;2023-05-10T00:25:41;14.50;99.90
3752;DHT22;50827;47.014;7.652;2023-05-10T00:28:08;14.60;99.90
3752;DHT22;50827;47.014;7.652;2023-05-10T00:30:35;14.60;99.90
3752;DHT22;50827;47.014;7.652;2023-05-10T00:33:01;14.50;99.90
3752;DHT22;50827;47.014;7.652;2023-05-10T00:35:28;14.50;99.90
3752;DHT22;50827;47.014;7.652;2023-05-10T00:37:55;14.60;99.90
3752;DHT22;50827;47.014;7.652;2023-05-10T00:40:21;14.60;99.90
3752;DHT22;50827;47.014;7.652;2023-05-10T00:42:48;14.60;99.90
3752;DHT22;50827;47.014;7.652;2023-05-10T00:45:15;14.50;99.90
3752;DHT22;50827;47.014;7.652;2023-05-10T00:47:42;14.60;99.90
3752;DHT22;50827;47.014;7.652;2023-05-10T00:50:09;14.60;99.90
3752;DHT22;50827;47.014;7.652;2023-05-10T00:52:36;14.60;99.90
3752;DHT22;50827;47.014;7.652;2023-05-10T00:55:03;14.60;99.90
3752;DHT22;50827;47.014;7.652;2023-05-10T00:57:30;14.60;99.90
3752;DHT22;50827;47.014;7.652;2023-05-10T00:59:57;14.60;99.90
3752;DHT22;50827;47.014;7.652;2023-05-10T01:02:25;14.60;99.90
3752;DHT22;50827;47.014;7.652;2023-05-10T01:04:52;14.60;99.90
3752;DHT22;50827;47.014;7.652;2023-05-10T01:07:19;14.50;99.90
3752;DHT22;50827;47.014;7.652;2023-05-10T01:09:46;14.40;99.90
3752;DHT22;50827;47.014;7.652;2023-05-10T01:12:13;14.50;99.90
3752;DHT22;50827;47.014;7.652;2023-05-10T01:14:40;14.50;99.90
3752;DHT22;50827;47.014;7.652;2023-05-10T01:17:07;14.50;99.90
3752;DHT22;50827;47.014;7.652;2023-05-10T01:19:35;14.50;99.90
3752;DHT22;50827;47.014;7.652;2023-05-10T01:30:35;14.50;99.90
3752;DHT22;50827;47.014;7.652;2023-05-10T01:36:01;14.50;99.90
3752;DHT22;50827;47.014;7.652;2023-05-10T01:38:36;14.50;99.90
3752;DHT22;50827;47.014;7.652;2023-05-10T01:41:17;14.50;99.90
3752;DHT22;50827;47.014;7.652;2023-05-10T01:46:50;14.40;99.90
3752;DHT22;50827;47.014;7.652;2023-05-10T01:49:27;14.40;99.90
3752;DHT22;50827;47.014;7.652;2023-05-10T01:52:00;14.40;99.90
3752;DHT22;50827;47.014;7.652;2023-05-10T01:54:30;14.40;99.90
3752;DHT22;50827;47.014;7.652;2023-05-10T01:57:03;14.30;99.90
3752;DHT22;50827;47.014;7.652;2023-05-10T01:59:33;14.20;99.90
3752;DHT22;50827;47.014;7.652;2023-05-10T02:02:04;14.20;99.90
3752;DHT22;50827;47.014;7.652;2023-05-10T02:04:35;14.20;99.90
3752;DHT22;50827;47.014;7.652;2023-05-10T02:07:02;14.30;99.90
3752;DHT22;50827;47.014;7.652;2023-05-10T02:09:30;14.20;99.90
3752;DHT22;50827;47.014;7.652;2023-05-10T02:12:00;14.20;99.90
3752;DHT22;50827;47.014;7.652;2023-05-10T02:14:30;14.20;99.90
3752;DHT22;50827;47.014;7.652;2023-05-10T02:16:59;14.20;99.90
3752;DHT22;50827;47.014;7.652;2023-05-10T02:19:29;14.20;99.90
3752;DHT22;50827;47.014;7.652;2023-05-10T02:21:57;14.30;99.90
3752;DHT22;50827;47.014;7.652;2023-05-10T02:24:26;14.30;99.90
3752;DHT22;50827;47.014;7.652;2023-05-10T02:26:57;14.30;99.90
3752;DHT22;50827;47.014;7.652;2023-05-10T02:29:25;14.20;99.90
3752;DHT22;50827;47.014;7.652;2023-05-10T02:31:55;14.20;99.90
3752;DHT22;50827;47.014;7.652;2023-05-10T02:34:24;14.30;99.90
3752;DHT22;50827;47.014;7.652;2023-05-10T02:36:52;14.30;99.90
3752;DHT22;50827;47.014;7.652;2023-05-10T02:39:19;14.30;99.90
3752;DHT22;50827;47.014;7.652;2023-05-10T02:41:48;14.30;99.90
3752;DHT22;50827;47.014;7.652;2023-05-10T02:44:19;14.30;99.90
3752;DHT22;50827;47.014;7.652;2023-05-10T02:46:47;14.30;99.90
3752;DHT22;50827;47.014;7.652;2023-05-10T02:49:14;14.30;99.90
3752;DHT22;50827;47.014;7.652;2023-05-10T02:51:44;14.30;99.90
3752;DHT22;50827;47.014;7.652;2023-05-10T02:54:19;14.30;99.90
3752;DHT22;50827;47.014;7.652;2023-05-10T02:56:51;14.30;99.90
3752;DHT22;50827;47.014;7.652;2023-05-10T02:59:18;14.30;99.90
3752;DHT22;50827;47.014;7.652;2023-05-10T03:01:45;14.30;99.90
3752;DHT22;50827;47.014;7.652;2023-05-10T03:04:11;14.30;99.90
3752;DHT22;50827;47.014;7.652;2023-05-10T03:06:39;14.40;99.90
3752;DHT22;50827;47.014;7.652;2023-05-10T03:09:06;14.30;99.90
3752;DHT22;50827;47.014;7.652;2023-05-10T03:16:42;14.20;99.90
3752;DHT22;50827;47.014;7.652;2023-05-10T03:19:22;14.20;99.90
3752;DHT22;50827;47.014;7.652;2023-05-10T03:21:52;14.10;99.90
3752;DHT22;50827;47.014;7.652;2023-05-10T03:24:21;14.10;99.90
3752;DHT22;50827;47.014;7.652;2023-05-10T03:26:49;14.10;99.90
3752;DHT22;50827;47.014;7.652;2023-05-10T03:29:18;14.10;99.90
3752;DHT22;50827;47.014;7.652;2023-05-10T03:31:45;14.10;99.90
3752;DHT22;50827;47.014;7.652;2023-05-10T03:34:12;14.10;99.90
3752;DHT22;50827;47.014;7.652;2023-05-10T03:36:39;14.00;99.90
3752;DHT22;50827;47.014;7.652;2023-05-10T03:39:06;13.90;99.90
3752;DHT22;50827;47.014;7.652;2023-05-10T03:41:32;13.90;99.90
3752;DHT22;50827;47.014;7.652;2023-05-10T03:43:59;13.90;99.90
3752;DHT22;50827;47.014;7.652;2023-05-10T03:46:25;13.80;99.90
3752;DHT22;50827;47.014;7.652;2023-05-10T03:48:52;13.80;99.90
3752;DHT22;50827;47.014;7.652;2023-05-10T03:51:19;13.70;99.90
3752;DHT22;50827;47.014;7.652;2023-05-10T03:53:46;13.70;99.90
3752;DHT22;50827;47.014;7.652;2023-05-10T03:56:12;13.70;99.90
3752;DHT22;50827;47.014;7.652;2023-05-10T03:58:39;13.70;99.90
3752;DHT22;50827;47.014;7.652;2023-05-10T04:01:05;13.70;99.90
3752;DHT22;50827;47.014;7.652;2023-05-10T04:03:32;13.80;99.90
3752;DHT22;50827;47.014;7.652;2023-05-10T04:06:00;13.70;99.90
3752;DHT22;50827;47.014;7.652;2023-05-10T04:08:27;13.70;99.90
3752;DHT22;50827;47.014;7.652;2023-05-10T04:10:54;13.70;99.90
3752;DHT22;50827;47.014;7.652;2023-05-10T04:13:21;13.60;99.90
3752;DHT22;50827;47.014;7.652;2023-05-10T04:15:49;13.60;99.90
3752;DHT22;50827;47.014;7.652;2023-05-10T04:18:15;13.50;99.90
3752;DHT22;50827;47.014;7.652;2023-05-10T04:20:43;13.40;99.90
3752;DHT22;50827;47.014;7.652;2023-05-10T04:23:10;13.50;99.90
3752;DHT22;50827;47.014;7.652;2023-05-10T04:25:37;13.50;99.90
3752;DHT22;50827;47.014;7.652;2023-05-10T04:28:03;13.50;99.90
3752;DHT22;50827;47.014;7.652;2023-05-10T04:30:30;13.60;99.90
3752;DHT22;50827;47.014;7.652;2023-05-10T04:32:57;13.60;99.90
3752;DHT22;50827;47.014;7.652;2023-05-10T04:35:24;13.60;99.90
3752;DHT22;50827;47.014;7.652;2023-05-10T04:37:51;13.60;99.90
3752;DHT22;50827;47.014;7.652;2023-05-10T04:40:17;13.60;99.90
3752;DHT22;50827;47.014;7.652;2023-05-10T04:42:44;13.50;99.90
3752;DHT22;50827;47.014;7.652;2023-05-10T04:45:11;13.50;99.90
3752;DHT22;50827;47.014;7.652;2023-05-10T04:47:38;13.40;99.90
3752;DHT22;50827;47.014;7.652;2023-05-10T04:50:05;13.40;99.90
3752;DHT22;50827;47.014;7.652;2023-05-10T04:52:32;13.40;99.90
3752;DHT22;50827;47.014;7.652;2023-05-10T04:54:59;13.30;99.90
3752;DHT22;50827;47.014;7.652;2023-05-10T04:57:26;13.30;99.90
3752;DHT22;50827;47.014;7.652;2023-05-10T04:59:53;13.30;99.90
3752;DHT22;50827;47.014;7.652;2023-05-10T05:02:19;13.30;99.90
3752;DHT22;50827;47.014;7.652;2023-05-10T05:04:46;13.40;99.90
3752;DHT22;50827;47.014;7.652;2023-05-10T05:07:13;13.30;99.90
3752;DHT22;50827;47.014;7.652;2023-05-10T05:09:39;13.30;99.90
3752;DHT22;50827;47.014;7.652;2023-05-10T05:12:06;13.40;99.90
3752;DHT22;50827;47.014;7.652;2023-05-10T05:14:33;13.40;99.90
3752;DHT22;50827;47.014;7.652;2023-05-10T05:17:01;13.30;99.90
3752;DHT22;50827;47.014;7.652;2023-05-10T05:19:27;13.30;99.90
3752;DHT22;50827;47.014;7.652;2023-05-10T05:21:54;13.40;99.90
3752;DHT22;50827;47.014;7.652;2023-05-10T05:24:21;13.30;99.90
3752;DHT22;50827;47.014;7.652;2023-05-10T05:26:47;13.40;99.90
3752;DHT22;50827;47.014;7.652;2023-05-10T05:29:15;13.30;99.90
3752;DHT22;50827;47.014;7.652;2023-05-10T05:31:41;13.30;99.90
3752;DHT22;50827;47.014;7.652;2023-05-10T05:34:08;13.30;99.90
3752;DHT22;50827;47.014;7.652;2023-05-10T05:36:36;13.30;99.90
3752;DHT22;50827;47.014;7.652;2023-05-10T05:39:04;13.20;99.90
3752;DHT22;50827;47.014;7.652;2023-05-10T05:41:31;13.20;99.90
3752;DHT22;50827;47.014;7.652;2023-05-10T05:43:58;13.20;99.90
3752;DHT22;50827;47.014;7.652;2023-05-10T05:46:24;13.20;99.90
3752;DHT22;50827;47.014;7.652;2023-05-10T05:48:51;13.10;99.90
3752;DHT22;50827;47.014;7.652;2023-05-10T05:51:18;13.10;99.90
3752;DHT22;50827;47.014;7.652;2023-05-10T05:53:44;13.00;99.90
3752;DHT22;50827;47.014;7.652;2023-05-10T05:56:11;13.00;99.90
3752;DHT22;50827;47.014;7.652;2023-05-10T05:58:38;13.00;99.90
3752;DHT22;50827;47.014;7.652;2023-05-10T06:01:05;13.00;99.90
3752;DHT22;50827;47.014;7.652;2023-05-10T06:03:32;13.00;99.90
3752;DHT22;50827;47.014;7.652;2023-05-10T06:05:59;13.00;99.90
3752;DHT22;50827;47.014;7.652;2023-05-10T06:08:25;13.00;99.90
3752;DHT22;50827;47.014;7.652;2023-05-10T06:10:52;12.90;99.90
3752;DHT22;50827;47.014;7.652;2023-05-10T06:13:19;12.80;99.90
3752;DHT22;50827;47.014;7.652;2023-05-10T06:15:45;12.80;99.90
3752;DHT22;50827;47.014;7.652;2023-05-10T06:18:12;12.80;99.90
3752;DHT22;50827;47.014;7.652;2023-05-10T06:20:41;12.90;99.90
3752;DHT22;50827;47.014;7.652;2023-05-10T06:23:08;12.90;99.90
3752;DHT22;50827;47.014;7.652;2023-05-10T06:25:35;12.80;99.90
3752;DHT22;50827;47.014;7.652;2023-05-10T06:28:01;12.80;99.90
3752;DHT22;50827;47.014;7.652;2023-05-10T06:30:28;12.80;99.90
3752;DHT22;50827;47.014;7.652;2023-05-10T06:32:56;12.90;99.90
3752;DHT22;50827;47.014;7.652;2023-05-10T06:35:23;12.90;99.90
3752;DHT22;50827;47.014;7.652;2023-05-10T06:37:50;12.80;99.90
3752;DHT22;50827;47.014;7.652;2023-05-10T06:40:17;12.80;99.90
3752;DHT22;50827;47.014;7.652;2023-05-10T06:42:44;13.00;99.90
3752;DHT22;50827;47.014;7.652;2023-05-10T06:45:12;12.90;99.90
3752;DHT22;50827;47.014;7.652;2023-05-10T06:47:40;13.00;99.90
3752;DHT22;50827;47.014;7.652;2023-05-10T06:50:10;13.00;99.90
3752;DHT22;50827;47.014;7.652;2023-05-10T06:52:40;13.10;99.90
3752;DHT22;50827;47.014;7.652;2023-05-10T06:55:07;13.10;99.90
3752;DHT22;50827;47.014;7.652;2023-05-10T06:57:35;13.10;99.90
3752;DHT22;50827;47.014;7.652;2023-05-10T07:00:02;13.00;99.90
3752;DHT22;50827;47.014;7.652;2023-05-10T07:02:30;13.10;99.90
3752;DHT22;50827;47.014;7.652;2023-05-10T07:04:57;13.10;99.90
3752;DHT22;50827;47.014;7.652;2023-05-10T07:07:28;13.10;99.90
3752;DHT22;50827;47.014;7.652;2023-05-10T07:09:55;13.10;99.90
3752;DHT22;50827;47.014;7.652;2023-05-10T07:12:23;13.20;99.90
3752;DHT22;50827;47.014;7.652;2023-05-10T07:14:50;13.20;99.90
3752;DHT22;50827;47.014;7.652;2023-05-10T07:17:16;13.20;99.90
3752;DHT22;50827;47.014;7.652;2023-05-10T07:19:43;13.20;99.90
3752;DHT22;50827;47.014;7.652;2023-05-10T07:22:10;13.30;99.90
3752;DHT22;50827;47.014;7.652;2023-05-10T07:24:37;13.30;99.90
3752;DHT22;50827;47.014;7.652;2023-05-10T07:27:03;13.30;99.90
3752;DHT22;50827;47.014;7.652;2023-05-10T07:29:30;13.30;99.90
3752;DHT22;50827;47.014;7.652;2023-05-10T07:31:57;13.40;99.90
3752;DHT22;50827;47.014;7.652;2023-05-10T07:34:25;13.40;99.90
3752;DHT22;50827;47.014;7.652;2023-05-10T07:36:52;13.40;99.90
3752;DHT22;50827;47.014;7.652;2023-05-10T07:39:19;13.50;99.90
3752;DHT22;50827;47.014;7.652;2023-05-10T07:41:54;13.50;99.90
3752;DHT22;50827;47.014;7.652;2023-05-10T07:44:20;13.50;99.90
3752;DHT22;50827;47.014;7.652;2023-05-10T07:46:47;13.60;99.90
3752;DHT22;50827;47.014;7.652;2023-05-10T07:49:15;13.70;99.90
3752;DHT22;50827;47.014;7.652;2023-05-10T07:51:41;13.70;99.90
3752;DHT22;50827;47.014;7.652;2023-05-10T07:54:09;13.70;99.90
3752;DHT22;50827;47.014;7.652;2023-05-10T07:56:35;13.70;99.90
3752;DHT22;50827;47.014;7.652;2023-05-10T07:59:03;13.70;99.90
3752;DHT22;50827;47.014;7.652;2023-05-10T08:01:31;13.70;99.90
3752;DHT22;50827;47.014;7.652;2023-05-10T08:04:01;13.70;99.90
3752;DHT22;50827;47.014;7.652;2023-05-10T08:06:28;13.70;99.90
3752;DHT22;50827;47.014;7.652;2023-05-10T08:08:57;13.70;99.90
3752;DHT22;50827;47.014;7.652;2023-05-10T08:11:24;13.80;99.90
3752;DHT22;50827;47.014;7.652;2023-05-10T08:13:51;13.90;99.90
3752;DHT22;50827;47.014;7.652;2023-05-10T08:16:17;13.90;99.90
3752;DHT22;50827;47.014;7.652;2023-05-10T08:18:45;14.00;99.90
3752;DHT22;50827;47.014;7.652;2023-05-10T08:21:14;14.00;99.90
3752;DHT22;50827;47.014;7.652;2023-05-10T08:23:40;14.10;99.90
3752;DHT22;50827;47.014;7.652;2023-05-10T08:26:07;14.00;99.90
3752;DHT22;50827;47.014;7.652;2023-05-10T08:28:33;14.00;99.90
3752;DHT22;50827;47.014;7.652;2023-05-10T08:31:00;14.00;99.90
3752;DHT22;50827;47.014;7.652;2023-05-10T08:33:27;14.00;99.90
3752;DHT22;50827;47.014;7.652;2023-05-10T08:35:53;13.90;99.90
3752;DHT22;50827;47.014;7.652;2023-05-10T08:38:20;13.80;99.90
3752;DHT22;50827;47.014;7.652;2023-05-10T08:40:49;13.60;99.90
3752;DHT22;50827;47.014;7.652;2023-05-10T08:43:17;13.70;99.90
3752;DHT22;50827;47.014;7.652;2023-05-10T08:45:45;13.70;99.90
3752;DHT22;50827;47.014;7.652;2023-05-10T08:48:14;13.70;99.90
3752;DHT22;50827;47.014;7.652;2023-05-10T08:50:42;13.80;99.90
3752;DHT22;50827;47.014;7.652;2023-05-10T08:53:11;13.80;99.90
3752;DHT22;50827;47.014;7.652;2023-05-10T08:55:41;13.70;99.90
3752;DHT22;50827;47.014;7.652;2023-05-10T08:58:09;13.70;99.90
3752;DHT22;50827;47.014;7.652;2023-05-10T09:00:36;13.80;99.90
3752;DHT22;50827;47.014;7.652;2023-05-10T09:03:06;13.90;99.90
3752;DHT22;50827;47.014;7.652;2023-05-10T09:05:33;14.00;99.90
3752;DHT22;50827;47.014;7.652;2023-05-10T09:08:02;14.10;99.90
3752;DHT22;50827;47.014;7.652;2023-05-10T09:10:29;14.20;99.90
3752;DHT22;50827;47.014;7.652;2023-05-10T09:12:57;14.40;99.90
3752;DHT22;50827;47.014;7.652;2023-05-10T09:15:25;14.50;99.90
3752;DHT22;50827;47.014;7.652;2023-05-10T09:17:52;14.50;99.90
3752;DHT22;50827;47.014;7.652;2023-05-10T09:20:19;14.50;99.90
3752;DHT22;50827;47.014;7.652;2023-05-10T09:22:46;14.70;99.90
3752;DHT22;50827;47.014;7.652;2023-05-10T09:25:15;14.80;99.90
3752;DHT22;50827;47.014;7.652;2023-05-10T09:27:47;14.80;99.90
3752;DHT22;50827;47.014;7.652;2023-05-10T09:30:23;14.90;99.90
3752;DHT22;50827;47.014;7.652;2023-05-10T09:32:50;14.90;99.90
3752;DHT22;50827;47.014;7.652;2023-05-10T09:35:19;14.90;99.90
3752;DHT22;50827;47.014;7.652;2023-05-10T09:37:47;15.00;99.90
3752;DHT22;50827;47.014;7.652;2023-05-10T09:40:16;14.90;99.90
3752;DHT22;50827;47.014;7.652;2023-05-10T09:42:58;14.80;99.90
3752;DHT22;50827;47.014;7.652;2023-05-10T09:45:30;14.70;99.90
3752;DHT22;50827;47.014;7.652;2023-05-10T09:47:58;14.70;99.90
3752;DHT22;50827;47.014;7.652;2023-05-10T09:50:26;14.80;99.90
3752;DHT22;50827;47.014;7.652;2023-05-10T09:53:01;14.80;99.90
3752;DHT22;50827;47.014;7.652;2023-05-10T09:58:05;15.10;99.90
3752;DHT22;50827;47.014;7.652;2023-05-10T10:00:46;15.20;99.90
3752;DHT22;50827;47.014;7.652;2023-05-10T10:03:16;15.20;99.90
3752;DHT22;50827;47.014;7.652;2023-05-10T10:05:44;15.20;99.90
3752;DHT22;50827;47.014;7.652;2023-05-10T10:08:13;15.10;99.90
3752;DHT22;50827;47.014;7.652;2023-05-10T10:10:40;15.10;99.90
3752;DHT22;50827;47.014;7.652;2023-05-10T10:13:08;15.10;99.90
3752;DHT22;50827;47.014;7.652;2023-05-10T10:15:35;15.10;99.90
3752;DHT22;50827;47.014;7.652;2023-05-10T10:18:02;15.10;99.90
3752;DHT22;50827;47.014;7.652;2023-05-10T10:20:30;15.00;99.90
3752;DHT22;50827;47.014;7.652;2023-05-10T10:22:57;14.90;99.90
3752;DHT22;50827;47.014;7.652;2023-05-10T10:25:24;15.00;99.90
3752;DHT22;50827;47.014;7.652;2023-05-10T10:35:54;14.70;99.90
3752;DHT22;50827;47.014;7.652;2023-05-10T10:38:21;14.60;99.90
3752;DHT22;50827;47.014;7.652;2023-05-10T10:41:02;14.70;99.90
3752;DHT22;50827;47.014;7.652;2023-05-10T10:43:29;14.70;99.90
3752;DHT22;50827;47.014;7.652;2023-05-10T10:46:15;14.70;99.90
3752;DHT22;50827;47.014;7.652;2023-05-10T10:51:38;14.70;99.90
3752;DHT22;50827;47.014;7.652;2023-05-10T10:54:11;14.80;99.90
3752;DHT22;50827;47.014;7.652;2023-05-10T10:56:38;14.80;99.90
3752;DHT22;50827;47.014;7.652;2023-05-10T10:59:05;14.80;99.90
3752;DHT22;50827;47.014;7.652;2023-05-10T11:01:35;14.80;99.90
3752;DHT22;50827;47.014;7.652;2023-05-10T11:06:32;15.10;99.90
3752;DHT22;50827;47.014;7.652;2023-05-10T11:09:07;15.20;99.90
3752;DHT22;50827;47.014;7.652;2023-05-10T11:11:35;15.30;99.90
3752;DHT22;50827;47.014;7.652;2023-05-10T11:14:04;15.40;99.90
3752;DHT22;50827;47.014;7.652;2023-05-10T11:16:44;15.40;99.90
3752;DHT22;50827;47.014;7.652;2023-05-10T11:19:12;15.40;99.90
3752;DHT22;50827;47.014;7.652;2023-05-10T11:24:21;15.40;99.90
3752;DHT22;50827;47.014;7.652;2023-05-10T11:26:51;15.40;99.90
3752;DHT22;50827;47.014;7.652;2023-05-10T11:29:18;15.40;99.90
3752;DHT22;50827;47.014;7.652;2023-05-10T11:31:46;15.30;99.90
3752;DHT22;50827;47.014;7.652;2023-05-10T11:34:30;15.30;99.90
3752;DHT22;50827;47.014;7.652;2023-05-10T11:36:57;15.10;99.90
3752;DHT22;50827;47.014;7.652;2023-05-10T11:39:28;15.20;99.90
3752;DHT22;50827;47.014;7.652;2023-05-10T11:41:56;15.20;99.90
3752;DHT22;50827;47.014;7.652;2023-05-10T11:44:23;15.20;99.90
3752;DHT22;50827;47.014;7.652;2023-05-10T11:46:49;15.30;99.90
3752;DHT22;50827;47.014;7.652;2023-05-10T11:49:16;15.40;99.90
3752;DHT22;50827;47.014;7.652;2023-05-10T11:51:43;15.50;99.90
3752;DHT22;50827;47.014;7.652;2023-05-10T11:54:11;15.50;99.90
3752;DHT22;50827;47.014;7.652;2023-05-10T11:56:39;15.60;99.90
3752;DHT22;50827;47.014;7.652;2023-05-10T11:59:05;15.60;99.90
3752;DHT22;50827;47.014;7.652;2023-05-10T12:01:32;15.80;99.90
3752;DHT22;50827;47.014;7.652;2023-05-10T12:04:00;15.80;99.90
3752;DHT22;50827;47.014;7.652;2023-05-10T12:06:29;15.90;99.90
3752;DHT22;50827;47.014;7.652;2023-05-10T12:08:55;16.00;99.90
3752;DHT22;50827;47.014;7.652;2023-05-10T12:11:25;16.10;99.90
3752;DHT22;50827;47.014;7.652;2023-05-10T12:13:54;16.20;99.90
3752;DHT22;50827;47.014;7.652;2023-05-10T12:16:25;16.30;99.90
3752;DHT22;50827;47.014;7.652;2023-05-10T12:18:57;16.30;99.90
3752;DHT22;50827;47.014;7.652;2023-05-10T12:21:24;16.40;99.90
3752;DHT22;50827;47.014;7.652;2023-05-10T12:23:53;16.40;99.90
3752;DHT22;50827;47.014;7.652;2023-05-10T12:26:23;16.50;99.90
3752;DHT22;50827;47.014;7.652;2023-05-10T12:28:51;16.50;99.90
3752;DHT22;50827;47.014;7.652;2023-05-10T12:31:17;16.50;99.90
3752;DHT22;50827;47.014;7.652;2023-05-10T12:33:45;16.40;99.90
3752;DHT22;50827;47.014;7.652;2023-05-10T12:36:14;16.50;99.90
3752;DHT22;50827;47.014;7.652;2023-05-10T12:38:45;16.70;99.90
3752;DHT22;50827;47.014;7.652;2023-05-10T12:41:17;16.70;99.90
3752;DHT22;50827;47.014;7.652;2023-05-10T12:43:44;16.80;99.90
3752;DHT22;50827;47.014;7.652;2023-05-10T12:46:16;16.80;99.90
3752;DHT22;50827;47.014;7.652;2023-05-10T12:48:44;16.90;99.90
3752;DHT22;50827;47.014;7.652;2023-05-10T12:51:32;17.00;99.90
3752;DHT22;50827;47.014;7.652;2023-05-10T12:53:59;17.10;99.90
3752;DHT22;50827;47.014;7.652;2023-05-10T12:56:25;17.10;99.90
3752;DHT22;50827;47.014;7.652;2023-05-10T12:58:52;17.10;99.90
3752;DHT22;50827;47.014;7.652;2023-05-10T13:01:19;17.20;99.90
3752;DHT22;50827;47.014;7.652;2023-05-10T13:03:46;17.30;99.90
3752;DHT22;50827;47.014;7.652;2023-05-10T13:06:13;17.30;99.90
3752;DHT22;50827;47.014;7.652;2023-05-10T13:08:40;17.30;99.90
3752;DHT22;50827;47.014;7.652;2023-05-10T13:11:07;17.30;99.90
3752;DHT22;50827;47.014;7.652;2023-05-10T13:13:34;17.40;99.90
3752;DHT22;50827;47.014;7.652;2023-05-10T13:16:00;17.40;99.90
3752;DHT22;50827;47.014;7.652;2023-05-10T13:18:27;17.30;99.90
3752;DHT22;50827;47.014;7.652;2023-05-10T13:20:54;17.30;99.90
3752;DHT22;50827;47.014;7.652;2023-05-10T13:23:22;17.40;99.90
3752;DHT22;50827;47.014;7.652;2023-05-10T13:25:48;17.30;99.90
3752;DHT22;50827;47.014;7.652;2023-05-10T13:28:15;17.10;99.90
3752;DHT22;50827;47.014;7.652;2023-05-10T13:30:42;17.10;99.90
3752;DHT22;50827;47.014;7.652;2023-05-10T13:33:09;17.10;99.90
3752;DHT22;50827;47.014;7.652;2023-05-10T13:35:35;17.10;99.90
3752;DHT22;50827;47.014;7.652;2023-05-10T13:38:02;16.90;99.90
3752;DHT22;50827;47.014;7.652;2023-05-10T13:40:29;16.80;99.90
3752;DHT22;50827;47.014;7.652;2023-05-10T13:42:55;16.70;99.90
3752;DHT22;50827;47.014;7.652;2023-05-10T13:45:22;16.50;99.90
3752;DHT22;50827;47.014;7.652;2023-05-10T13:47:49;16.30;99.90
3752;DHT22;50827;47.014;7.652;2023-05-10T13:50:16;15.90;99.90
3752;DHT22;50827;47.014;7.652;2023-05-10T13:52:43;15.50;99.90
3752;DHT22;50827;47.014;7.652;2023-05-10T13:55:10;15.60;99.90
3752;DHT22;50827;47.014;7.652;2023-05-10T13:57:38;15.40;99.90
3752;DHT22;50827;47.014;7.652;2023-05-10T14:00:05;15.40;99.90
3752;DHT22;50827;47.014;7.652;2023-05-10T14:02:32;15.20;99.90
3752;DHT22;50827;47.014;7.652;2023-05-10T14:04:59;15.40;99.90
3752;DHT22;50827;47.014;7.652;2023-05-10T14:07:26;15.50;99.90
3752;DHT22;50827;47.014;7.652;2023-05-10T14:09:53;15.50;99.90
3752;DHT22;50827;47.014;7.652;2023-05-10T14:12:20;15.50;99.90
3752;DHT22;50827;47.014;7.652;2023-05-10T14:14:46;15.40;99.90
3752;DHT22;50827;47.014;7.652;2023-05-10T14:17:13;15.40;99.90
3752;DHT22;50827;47.014;7.652;2023-05-10T14:19:39;15.40;99.90
3752;DHT22;50827;47.014;7.652;2023-05-10T14:22:06;15.40;99.90
3752;DHT22;50827;47.014;7.652;2023-05-10T14:24:33;15.60;99.90
3752;DHT22;50827;47.014;7.652;2023-05-10T14:27:00;15.70;99.90
3752;DHT22;50827;47.014;7.652;2023-05-10T14:29:26;16.00;99.90
3752;DHT22;50827;47.014;7.652;2023-05-10T14:31:53;16.10;99.90
3752;DHT22;50827;47.014;7.652;2023-05-10T14:34:20;16.40;99.90
3752;DHT22;50827;47.014;7.652;2023-05-10T14:36:47;16.60;99.90
3752;DHT22;50827;47.014;7.652;2023-05-10T14:39:14;16.90;99.90
3752;DHT22;50827;47.014;7.652;2023-05-10T14:41:40;17.00;99.90
3752;DHT22;50827;47.014;7.652;2023-05-10T14:44:10;17.00;99.90
3752;DHT22;50827;47.014;7.652;2023-05-10T14:46:37;17.00;99.90
3752;DHT22;50827;47.014;7.652;2023-05-10T14:49:04;16.90;99.90
3752;DHT22;50827;47.014;7.652;2023-05-10T14:51:31;16.90;99.90
3752;DHT22;50827;47.014;7.652;2023-05-10T14:53:58;17.00;99.90
3752;DHT22;50827;47.014;7.652;2023-05-10T14:56:24;17.10;99.90
3752;DHT22;50827;47.014;7.652;2023-05-10T14:58:52;17.40;99.90
3752;DHT22;50827;47.014;7.652;2023-05-10T15:01:19;17.30;99.90
3752;DHT22;50827;47.014;7.652;2023-05-10T15:03:46;17.50;99.90
3752;DHT22;50827;47.014;7.652;2023-05-10T15:06:14;17.50;99.90
3752;DHT22;50827;47.014;7.652;2023-05-10T15:08:42;17.50;99.90
3752;DHT22;50827;47.014;7.652;2023-05-10T15:11:09;17.40;99.90
3752;DHT22;50827;47.014;7.652;2023-05-10T15:13:35;17.30;99.90
3752;DHT22;50827;47.014;7.652;2023-05-10T15:16:02;17.20;99.90
3752;DHT22;50827;47.014;7.652;2023-05-10T15:18:29;17.10;99.90
3752;DHT22;50827;47.014;7.652;2023-05-10T15:20:55;17.10;99.90
3752;DHT22;50827;47.014;7.652;2023-05-10T15:23:22;17.00;99.90
3752;DHT22;50827;47.014;7.652;2023-05-10T15:25:49;17.00;99.90
3752;DHT22;50827;47.014;7.652;2023-05-10T15:28:18;17.00;99.90
3752;DHT22;50827;47.014;7.652;2023-05-10T15:30:45;17.00;99.90
3752;DHT22;50827;47.014;7.652;2023-05-10T15:33:12;17.00;99.90
3752;DHT22;50827;47.014;7.652;2023-05-10T15:35:38;17.00;99.90
3752;DHT22;50827;47.014;7.652;2023-05-10T15:38:05;17.10;99.90
3752;DHT22;50827;47.014;7.652;2023-05-10T15:40:32;17.30;99.90
3752;DHT22;50827;47.014;7.652;2023-05-10T15:42:59;17.20;99.90
3752;DHT22;50827;47.014;7.652;2023-05-10T15:45:26;17.10;99.90
3752;DHT22;50827;47.014;7.652;2023-05-10T15:47:53;17.10;99.90
3752;DHT22;50827;47.014;7.652;2023-05-10T15:50:19;17.20;99.90
3752;DHT22;50827;47.014;7.652;2023-05-10T15:52:46;17.30;99.90
3752;DHT22;50827;47.014;7.652;2023-05-10T15:55:13;17.10;99.90
3752;DHT22;50827;47.014;7.652;2023-05-10T15:57:41;17.10;99.90
3752;DHT22;50827;47.014;7.652;2023-05-10T16:00:09;17.00;99.90
3752;DHT22;50827;47.014;7.652;2023-05-10T16:02:36;16.90;99.90
3752;DHT22;50827;47.014;7.652;2023-05-10T16:05:03;16.90;99.90
3752;DHT22;50827;47.014;7.652;2023-05-10T16:07:30;16.90;99.90
3752;DHT22;50827;47.014;7.652;2023-05-10T16:09:57;16.80;99.90
3752;DHT22;50827;47.014;7.652;2023-05-10T16:12:23;16.80;99.90
3752;DHT22;50827;47.014;7.652;2023-05-10T16:14:50;16.70;99.90
3752;DHT22;50827;47.014;7.652;2023-05-10T16:17:17;16.80;99.90
3752;DHT22;50827;47.014;7.652;2023-05-10T16:19:45;16.80;99.90
3752;DHT22;50827;47.014;7.652;2023-05-10T16:22:13;16.70;99.90
3752;DHT22;50827;47.014;7.652;2023-05-10T16:24:40;16.80;99.90
3752;DHT22;50827;47.014;7.652;2023-05-10T16:27:07;16.90;99.90